sensor_id;sensor_type;location;lat;lon;timestamp;pressure;altitude;pressure_sealevel;temperature;humidity
50774;BME280;36745;48.544;8.918;2023-12-04T00:02:48;97477.25;;;-7.55;88.50
50774;BME280;36745;48.544;8.918;2023-12-04T00:06:10;97466.25;;;-7.54;87.85
50774;BME280;36745;48.544;8.918;2023-12-04T00:09:30;97460.63;;;-7.70;88.25
50774;BME280;36745;48.544;8.918;2023-12-04T00:12:50;97452.09;;;-7.63;88.29
50774;BME280;36745;48.544;8.918;2023-12-04T00:16:10;97437.63;;;-7.62;88.30
50774;BME280;36745;48.544;8.918;2023-12-04T00:19:29;97437.63;;;-7.62;88.85
50774;BME280;36745;48.544;8.918;2023-12-04T00:22:49;97430.34;;;-7.53;88.20
50774;BME280;36745;48.544;8.918;2023-12-04T00:26:09;97431.28;;;-7.49;87.76
50774;BME280;36745;48.544;8.918;2023-12-04T00:29:29;97424.72;;;-7.69;87.40
50774;BME280;36745;48.544;8.918;2023-12-04T00:32:49;97415.94;;;-7.86;87.41
50774;BME280;36745;48.544;8.918;2023-12-04T00:36:09;97414.53;;;-7.92;87.44
50774;BME280;36745;48.544;8.918;2023-12-04T00:39:29;97406.53;;;-7.92;87.66
50774;BME280;36745;48.544;8.918;2023-12-04T00:42:49;97405.44;;;-8.00;87.09
50774;BME280;36745;48.544;8.918;2023-12-04T00:46:09;97407.81;;;-8.07;87.86
50774;BME280;36745;48.544;8.918;2023-12-04T00:49:29;97408.13;;;-8.09;86.71
50774;BME280;36745;48.544;8.918;2023-12-04T00:52:49;97400.44;;;-8.19;88.20
50774;BME280;36745;48.544;8.918;2023-12-04T00:56:09;97407.75;;;-7.81;88.21
50774;BME280;36745;48.544;8.918;2023-12-04T00:59:28;97408.97;;;-7.70;86.67
50774;BME280;36745;48.544;8.918;2023-12-04T01:02:48;97399.91;;;-7.86;86.03
50774;BME280;36745;48.544;8.918;2023-12-04T01:06:08;97396.47;;;-7.95;86.23
50774;BME280;36745;48.544;8.918;2023-12-04T01:09:39;97402.50;;;-8.16;86.52
50774;BME280;36745;48.544;8.918;2023-12-04T01:12:59;97393.38;;;-8.23;86.92
50774;BME280;36745;48.544;8.918;2023-12-04T01:16:18;97397.16;;;-8.16;87.31
50774;BME280;36745;48.544;8.918;2023-12-04T01:19:38;97390.22;;;-8.17;87.44
50774;BME280;36745;48.544;8.918;2023-12-04T01:22:58;97389.28;;;-8.21;88.00
50774;BME280;36745;48.544;8.918;2023-12-04T01:26:18;97386.13;;;-8.23;88.24
50774;BME280;36745;48.544;8.918;2023-12-04T01:29:38;97385.19;;;-8.10;88.87
50774;BME280;36745;48.544;8.918;2023-12-04T01:32:57;97385.47;;;-8.02;89.01
50774;BME280;36745;48.544;8.918;2023-12-04T01:36:17;97396.34;;;-7.99;88.47
50774;BME280;36745;48.544;8.918;2023-12-04T01:39:37;97380.31;;;-8.16;88.47
50774;BME280;36745;48.544;8.918;2023-12-04T01:42:56;97383.28;;;-8.18;88.77
50774;BME280;36745;48.544;8.918;2023-12-04T01:46:17;97385.66;;;-8.25;88.12
50774;BME280;36745;48.544;8.918;2023-12-04T01:49:37;97383.50;;;-8.40;87.84
50774;BME280;36745;48.544;8.918;2023-12-04T01:52:56;97371.25;;;-8.41;87.97
50774;BME280;36745;48.544;8.918;2023-12-04T01:56:17;97368.59;;;-8.58;89.27
50774;BME280;36745;48.544;8.918;2023-12-04T01:59:37;97355.53;;;-8.51;89.76
50774;BME280;36745;48.544;8.918;2023-12-04T02:02:57;97352.34;;;-8.36;90.67
50774;BME280;36745;48.544;8.918;2023-12-04T02:06:17;97345.75;;;-8.30;88.56
50774;BME280;36745;48.544;8.918;2023-12-04T02:09:39;97354.22;;;-8.28;88.87
50774;BME280;36745;48.544;8.918;2023-12-04T02:12:59;97355.31;;;-8.29;88.90
50774;BME280;36745;48.544;8.918;2023-12-04T02:16:19;97349.63;;;-8.19;88.97
50774;BME280;36745;48.544;8.918;2023-12-04T02:19:42;97363.97;;;-8.23;89.00
50774;BME280;36745;48.544;8.918;2023-12-04T02:23:02;97355.47;;;-8.17;88.63
50774;BME280;36745;48.544;8.918;2023-12-04T02:26:26;97354.88;;;-8.31;87.65
50774;BME280;36745;48.544;8.918;2023-12-04T02:29:53;97344.75;;;-8.25;87.87
50774;BME280;36745;48.544;8.918;2023-12-04T02:33:17;97343.66;;;-8.16;88.02
50774;BME280;36745;48.544;8.918;2023-12-04T02:36:38;97329.38;;;-8.28;88.22
50774;BME280;36745;48.544;8.918;2023-12-04T02:40:00;97324.69;;;-8.31;87.36
50774;BME280;36745;48.544;8.918;2023-12-04T02:43:20;97316.19;;;-8.33;88.07
50774;BME280;36745;48.544;8.918;2023-12-04T02:46:40;97315.41;;;-8.34;88.19
50774;BME280;36745;48.544;8.918;2023-12-04T02:49:59;97303.25;;;-8.23;87.98
50774;BME280;36745;48.544;8.918;2023-12-04T02:53:19;97300.88;;;-8.16;87.59
50774;BME280;36745;48.544;8.918;2023-12-04T02:56:39;97293.38;;;-8.31;87.15
50774;BME280;36745;48.544;8.918;2023-12-04T02:59:59;97291.94;;;-8.28;86.95
50774;BME280;36745;48.544;8.918;2023-12-04T03:03:19;97289.59;;;-8.30;86.25
50774;BME280;36745;48.544;8.918;2023-12-04T03:06:38;97289.78;;;-8.35;85.95
50774;BME280;36745;48.544;8.918;2023-12-04T03:09:58;97278.94;;;-8.47;85.79
50774;BME280;36745;48.544;8.918;2023-12-04T03:13:18;97275.00;;;-8.41;86.79
50774;BME280;36745;48.544;8.918;2023-12-04T03:16:38;97261.63;;;-8.41;87.02
50774;BME280;36745;48.544;8.918;2023-12-04T03:19:57;97255.53;;;-8.50;86.61
50774;BME280;36745;48.544;8.918;2023-12-04T03:23:17;97238.84;;;-8.47;86.85
50774;BME280;36745;48.544;8.918;2023-12-04T03:26:37;97239.28;;;-8.36;87.50
50774;BME280;36745;48.544;8.918;2023-12-04T03:29:57;97243.94;;;-8.16;87.08
50774;BME280;36745;48.544;8.918;2023-12-04T03:33:16;97239.81;;;-8.14;87.16
50774;BME280;36745;48.544;8.918;2023-12-04T03:36:36;97238.41;;;-8.11;87.26
50774;BME280;36745;48.544;8.918;2023-12-04T03:39:56;97242.78;;;-8.07;87.07
50774;BME280;36745;48.544;8.918;2023-12-04T03:43:16;97238.75;;;-7.83;87.44
50774;BME280;36745;48.544;8.918;2023-12-04T03:46:35;97232.56;;;-7.75;86.99
50774;BME280;36745;48.544;8.918;2023-12-04T03:49:55;97224.13;;;-7.65;87.18
50774;BME280;36745;48.544;8.918;2023-12-04T03:53:15;97218.16;;;-7.62;86.79
50774;BME280;36745;48.544;8.918;2023-12-04T03:56:36;97226.91;;;-7.53;86.92
50774;BME280;36745;48.544;8.918;2023-12-04T03:59:55;97226.00;;;-7.36;86.58
50774;BME280;36745;48.544;8.918;2023-12-04T04:03:15;97227.97;;;-7.45;86.63
50774;BME280;36745;48.544;8.918;2023-12-04T04:06:35;97216.00;;;-7.27;86.80
50774;BME280;36745;48.544;8.918;2023-12-04T04:09:57;97223.66;;;-7.38;85.83
50774;BME280;36745;48.544;8.918;2023-12-04T04:13:17;97223.41;;;-7.45;85.61
50774;BME280;36745;48.544;8.918;2023-12-04T04:16:37;97223.84;;;-7.43;85.34
50774;BME280;36745;48.544;8.918;2023-12-04T04:19:57;97220.53;;;-7.40;85.91
50774;BME280;36745;48.544;8.918;2023-12-04T04:23:16;97222.47;;;-7.49;85.79
50774;BME280;36745;48.544;8.918;2023-12-04T04:26:36;97225.91;;;-7.48;86.43
50774;BME280;36745;48.544;8.918;2023-12-04T04:29:56;97224.94;;;-7.44;85.64
50774;BME280;36745;48.544;8.918;2023-12-04T04:33:16;97220.88;;;-7.50;85.83
50774;BME280;36745;48.544;8.918;2023-12-04T04:36:37;97214.91;;;-7.47;86.70
50774;BME280;36745;48.544;8.918;2023-12-04T04:39:56;97210.25;;;-7.38;86.18
50774;BME280;36745;48.544;8.918;2023-12-04T04:43:16;97204.91;;;-7.38;85.92
50774;BME280;36745;48.544;8.918;2023-12-04T04:46:36;97188.59;;;-7.24;85.94
50774;BME280;36745;48.544;8.918;2023-12-04T04:49:56;97181.56;;;-7.16;86.18
50774;BME280;36745;48.544;8.918;2023-12-04T04:53:16;97177.78;;;-7.15;86.51
50774;BME280;36745;48.544;8.918;2023-12-04T04:56:35;97183.03;;;-7.19;86.50
50774;BME280;36745;48.544;8.918;2023-12-04T04:59:55;97176.72;;;-7.23;86.25
50774;BME280;36745;48.544;8.918;2023-12-04T05:03:15;97169.81;;;-7.03;87.03
50774;BME280;36745;48.544;8.918;2023-12-04T05:06:35;97170.13;;;-7.05;86.57
50774;BME280;36745;48.544;8.918;2023-12-04T05:09:54;97161.44;;;-7.02;86.50
50774;BME280;36745;48.544;8.918;2023-12-04T05:13:14;97155.41;;;-6.99;86.25
50774;BME280;36745;48.544;8.918;2023-12-04T05:16:34;97145.22;;;-7.05;86.54
50774;BME280;36745;48.544;8.918;2023-12-04T05:19:54;97140.13;;;-6.98;86.63
50774;BME280;36745;48.544;8.918;2023-12-04T05:23:14;97134.09;;;-6.95;86.95
50774;BME280;36745;48.544;8.918;2023-12-04T05:26:33;97136.44;;;-6.94;86.92
50774;BME280;36745;48.544;8.918;2023-12-04T05:29:53;97141.84;;;-6.82;86.59
50774;BME280;36745;48.544;8.918;2023-12-04T05:33:13;97139.28;;;-6.78;86.19
50774;BME280;36745;48.544;8.918;2023-12-04T05:36:33;97136.56;;;-6.90;85.89
50774;BME280;36745;48.544;8.918;2023-12-04T05:39:52;97145.94;;;-6.96;86.43
50774;BME280;36745;48.544;8.918;2023-12-04T05:43:12;97140.22;;;-6.95;87.12
50774;BME280;36745;48.544;8.918;2023-12-04T05:46:32;97143.94;;;-6.87;87.41
50774;BME280;36745;48.544;8.918;2023-12-04T05:49:52;97142.41;;;-6.76;87.80
50774;BME280;36745;48.544;8.918;2023-12-04T05:53:12;97142.66;;;-6.57;87.56
50774;BME280;36745;48.544;8.918;2023-12-04T05:56:31;97133.28;;;-6.51;87.60
50774;BME280;36745;48.544;8.918;2023-12-04T05:59:51;97124.81;;;-6.28;87.58
50774;BME280;36745;48.544;8.918;2023-12-04T06:03:11;97132.06;;;-6.41;87.22
50774;BME280;36745;48.544;8.918;2023-12-04T06:06:31;97115.63;;;-6.27;87.75
50774;BME280;36745;48.544;8.918;2023-12-04T06:09:50;97118.75;;;-6.25;87.25
50774;BME280;36745;48.544;8.918;2023-12-04T06:13:10;97112.03;;;-6.19;87.64
50774;BME280;36745;48.544;8.918;2023-12-04T06:16:30;97112.97;;;-6.15;87.41
50774;BME280;36745;48.544;8.918;2023-12-04T06:19:50;97112.72;;;-6.10;88.25
50774;BME280;36745;48.544;8.918;2023-12-04T06:23:10;97108.03;;;-6.13;87.15
50774;BME280;36745;48.544;8.918;2023-12-04T06:26:31;97102.56;;;-6.17;87.48
50774;BME280;36745;48.544;8.918;2023-12-04T06:29:51;97099.97;;;-6.13;87.62
50774;BME280;36745;48.544;8.918;2023-12-04T06:33:12;97093.25;;;-6.07;87.76
50774;BME280;36745;48.544;8.918;2023-12-04T06:36:37;97095.94;;;-5.95;87.53
50774;BME280;36745;48.544;8.918;2023-12-04T06:39:59;97075.81;;;-6.13;87.05
50774;BME280;36745;48.544;8.918;2023-12-04T06:43:19;97078.97;;;-6.11;88.20
50774;BME280;36745;48.544;8.918;2023-12-04T06:46:40;97078.25;;;-5.96;87.48
50774;BME280;36745;48.544;8.918;2023-12-04T06:50:00;97065.84;;;-5.88;87.22
50774;BME280;36745;48.544;8.918;2023-12-04T06:53:20;97062.16;;;-5.96;87.19
50774;BME280;36745;48.544;8.918;2023-12-04T06:56:40;97061.38;;;-5.97;87.43
50774;BME280;36745;48.544;8.918;2023-12-04T06:59:59;97060.47;;;-5.88;87.86
50774;BME280;36745;48.544;8.918;2023-12-04T07:03:20;97068.09;;;-5.75;87.89
50774;BME280;36745;48.544;8.918;2023-12-04T07:06:39;97058.00;;;-5.66;87.71
50774;BME280;36745;48.544;8.918;2023-12-04T07:09:59;97057.75;;;-5.61;87.31
50774;BME280;36745;48.544;8.918;2023-12-04T07:13:19;97050.59;;;-5.57;87.70
50774;BME280;36745;48.544;8.918;2023-12-04T07:16:42;97054.34;;;-5.45;87.81
50774;BME280;36745;48.544;8.918;2023-12-04T07:20:02;97056.78;;;-5.40;87.50
50774;BME280;36745;48.544;8.918;2023-12-04T07:23:23;97044.19;;;-5.52;87.78
50774;BME280;36745;48.544;8.918;2023-12-04T07:26:43;97041.75;;;-5.29;87.99
50774;BME280;36745;48.544;8.918;2023-12-04T07:30:03;97043.19;;;-5.32;87.32
50774;BME280;36745;48.544;8.918;2023-12-04T07:33:23;97054.53;;;-5.38;87.34
50774;BME280;36745;48.544;8.918;2023-12-04T07:36:43;97049.09;;;-5.26;87.88
50774;BME280;36745;48.544;8.918;2023-12-04T07:40:04;97042.13;;;-5.43;86.69
50774;BME280;36745;48.544;8.918;2023-12-04T07:43:25;97028.88;;;-5.52;87.56
50774;BME280;36745;48.544;8.918;2023-12-04T07:46:45;97048.13;;;-5.34;87.85
50774;BME280;36745;48.544;8.918;2023-12-04T07:50:06;97040.34;;;-5.23;87.17
50774;BME280;36745;48.544;8.918;2023-12-04T07:53:26;97070.59;;;-5.26;87.93
50774;BME280;36745;48.544;8.918;2023-12-04T07:56:46;97066.75;;;-5.13;87.61
50774;BME280;36745;48.544;8.918;2023-12-04T08:00:06;97061.13;;;-4.92;87.92
50774;BME280;36745;48.544;8.918;2023-12-04T08:03:27;97053.59;;;-4.87;87.56
50774;BME280;36745;48.544;8.918;2023-12-04T08:06:46;97060.69;;;-4.79;87.21
50774;BME280;36745;48.544;8.918;2023-12-04T08:10:07;97040.81;;;-4.74;86.94
50774;BME280;36745;48.544;8.918;2023-12-04T08:13:27;97048.09;;;-4.75;87.83
50774;BME280;36745;48.544;8.918;2023-12-04T08:16:48;97027.34;;;-4.58;88.04
50774;BME280;36745;48.544;8.918;2023-12-04T08:20:08;97021.34;;;-4.36;88.19
50774;BME280;36745;48.544;8.918;2023-12-04T08:23:33;97037.75;;;-4.41;87.43
50774;BME280;36745;48.544;8.918;2023-12-04T08:26:53;97032.38;;;-4.41;87.25
50774;BME280;36745;48.544;8.918;2023-12-04T08:44:21;97012.88;;;-4.19;87.12
50774;BME280;36745;48.544;8.918;2023-12-04T08:47:41;97004.69;;;-4.07;87.41
50774;BME280;36745;48.544;8.918;2023-12-04T08:51:04;97016.47;;;-3.96;87.13
50774;BME280;36745;48.544;8.918;2023-12-04T08:54:24;97016.97;;;-3.90;87.06
50774;BME280;36745;48.544;8.918;2023-12-04T08:57:44;97019.56;;;-3.94;87.19
50774;BME280;36745;48.544;8.918;2023-12-04T09:01:04;97011.09;;;-3.96;86.46
50774;BME280;36745;48.544;8.918;2023-12-04T09:04:24;97011.59;;;-3.90;86.12
50774;BME280;36745;48.544;8.918;2023-12-04T09:07:44;97021.00;;;-4.00;86.96
50774;BME280;36745;48.544;8.918;2023-12-04T09:11:03;97015.47;;;-3.88;85.70
50774;BME280;36745;48.544;8.918;2023-12-04T09:14:23;97025.66;;;-3.97;87.21
50774;BME280;36745;48.544;8.918;2023-12-04T09:17:43;97020.66;;;-3.79;88.15
50774;BME280;36745;48.544;8.918;2023-12-04T09:21:03;97037.81;;;-3.68;87.06
50774;BME280;36745;48.544;8.918;2023-12-04T09:24:23;97041.44;;;-3.41;88.09
50774;BME280;36745;48.544;8.918;2023-12-04T09:27:43;97016.66;;;-3.05;86.24
50774;BME280;36745;48.544;8.918;2023-12-04T09:31:03;97010.59;;;-3.21;86.01
50774;BME280;36745;48.544;8.918;2023-12-04T09:34:23;97053.28;;;-3.04;86.80
50774;BME280;36745;48.544;8.918;2023-12-04T09:37:43;97048.47;;;-3.14;84.99
50774;BME280;36745;48.544;8.918;2023-12-04T09:41:03;97058.16;;;-3.32;85.89
50774;BME280;36745;48.544;8.918;2023-12-04T09:44:24;97042.50;;;-3.04;86.13
50774;BME280;36745;48.544;8.918;2023-12-04T09:47:47;97062.41;;;-2.89;86.07
50774;BME280;36745;48.544;8.918;2023-12-04T09:51:09;97041.31;;;-2.61;85.63
50774;BME280;36745;48.544;8.918;2023-12-04T09:54:29;97052.88;;;-2.60;85.04
50774;BME280;36745;48.544;8.918;2023-12-04T09:57:49;97066.41;;;-2.34;85.78
50774;BME280;36745;48.544;8.918;2023-12-04T10:01:09;97057.47;;;-2.38;85.04
50774;BME280;36745;48.544;8.918;2023-12-04T10:04:31;97043.06;;;-2.23;86.04
50774;BME280;36745;48.544;8.918;2023-12-04T10:07:51;97018.59;;;-2.33;84.99
50774;BME280;36745;48.544;8.918;2023-12-04T10:11:12;97011.69;;;-2.31;85.48
50774;BME280;36745;48.544;8.918;2023-12-04T10:14:32;96992.56;;;-2.19;85.75
50774;BME280;36745;48.544;8.918;2023-12-04T10:17:52;97025.72;;;-2.22;86.26
50774;BME280;36745;48.544;8.918;2023-12-04T10:21:13;97012.19;;;-1.95;86.31
50774;BME280;36745;48.544;8.918;2023-12-04T10:24:39;96976.81;;;-1.83;85.91
50774;BME280;36745;48.544;8.918;2023-12-04T10:28:10;96969.09;;;-1.85;85.67
50774;BME280;36745;48.544;8.918;2023-12-04T10:31:32;96966.59;;;-1.67;86.20
50774;BME280;36745;48.544;8.918;2023-12-04T10:34:55;96957.78;;;-1.60;85.98
50774;BME280;36745;48.544;8.918;2023-12-04T10:38:14;96937.66;;;-1.66;84.89
50774;BME280;36745;48.544;8.918;2023-12-04T10:41:34;96924.19;;;-1.96;84.80
50774;BME280;36745;48.544;8.918;2023-12-04T10:44:55;96906.50;;;-2.24;85.31
50774;BME280;36745;48.544;8.918;2023-12-04T10:48:17;96931.16;;;-1.95;86.34
50774;BME280;36745;48.544;8.918;2023-12-04T10:51:38;96940.69;;;-1.72;86.68
50774;BME280;36745;48.544;8.918;2023-12-04T10:54:57;96930.84;;;-1.53;86.37
50774;BME280;36745;48.544;8.918;2023-12-04T10:58:19;96920.34;;;-1.62;85.44
50774;BME280;36745;48.544;8.918;2023-12-04T11:01:42;96930.75;;;-1.60;85.64
50774;BME280;36745;48.544;8.918;2023-12-04T11:05:07;96889.69;;;-1.77;84.49
50774;BME280;36745;48.544;8.918;2023-12-04T11:08:33;96892.69;;;-1.85;84.99
50774;BME280;36745;48.544;8.918;2023-12-04T11:11:59;96890.44;;;-1.76;85.69
50774;BME280;36745;48.544;8.918;2023-12-04T11:15:20;96885.34;;;-1.48;86.25
50774;BME280;36745;48.544;8.918;2023-12-04T11:18:44;96876.75;;;-1.57;85.27
50774;BME280;36745;48.544;8.918;2023-12-04T11:22:09;96859.72;;;-1.61;86.10
50774;BME280;36745;48.544;8.918;2023-12-04T11:25:30;96844.44;;;-1.46;86.88
50774;BME280;36745;48.544;8.918;2023-12-04T11:28:54;96836.44;;;-1.29;87.04
50774;BME280;36745;48.544;8.918;2023-12-04T11:32:15;96841.66;;;-1.02;87.00
50774;BME280;36745;48.544;8.918;2023-12-04T11:35:36;96821.69;;;-0.87;86.57
50774;BME280;36745;48.544;8.918;2023-12-04T11:39:00;96799.31;;;-0.77;86.81
50774;BME280;36745;48.544;8.918;2023-12-04T11:42:23;96781.53;;;-0.78;86.43
50774;BME280;36745;48.544;8.918;2023-12-04T11:45:43;96776.84;;;-0.88;85.67
50774;BME280;36745;48.544;8.918;2023-12-04T11:52:46;96797.03;;;-0.68;86.71
50774;BME280;36745;48.544;8.918;2023-12-04T11:56:10;96794.03;;;-0.45;86.39
50774;BME280;36745;48.544;8.918;2023-12-04T11:59:37;96785.59;;;-0.33;86.56
50774;BME280;36745;48.544;8.918;2023-12-04T12:06:17;96784.09;;;-0.09;86.11
50774;BME280;36745;48.544;8.918;2023-12-04T12:09:37;96784.78;;;-0.40;84.81
50774;BME280;36745;48.544;8.918;2023-12-04T12:12:58;96777.06;;;-0.38;85.52
50774;BME280;36745;48.544;8.918;2023-12-04T12:16:18;96776.69;;;-0.26;84.39
50774;BME280;36745;48.544;8.918;2023-12-04T12:19:37;96760.03;;;-0.35;84.84
50774;BME280;36745;48.544;8.918;2023-12-04T12:22:58;96771.63;;;-0.38;84.66
50774;BME280;36745;48.544;8.918;2023-12-04T12:26:17;96764.72;;;-0.18;84.80
50774;BME280;36745;48.544;8.918;2023-12-04T12:29:37;96745.00;;;-0.15;85.22
50774;BME280;36745;48.544;8.918;2023-12-04T12:32:57;96741.16;;;-0.07;84.97
50774;BME280;36745;48.544;8.918;2023-12-04T12:36:17;96738.38;;;-0.21;84.45
50774;BME280;36745;48.544;8.918;2023-12-04T12:39:37;96741.09;;;-0.28;84.95
50774;BME280;36745;48.544;8.918;2023-12-04T12:43:06;96705.47;;;-0.41;84.62
50774;BME280;36745;48.544;8.918;2023-12-04T12:46:27;96701.97;;;-0.56;86.52
50774;BME280;36745;48.544;8.918;2023-12-04T12:49:47;96717.44;;;-0.53;87.45
50774;BME280;36745;48.544;8.918;2023-12-04T12:53:07;96706.66;;;-0.28;88.01
50774;BME280;36745;48.544;8.918;2023-12-04T12:56:27;96712.50;;;-0.22;87.18
50774;BME280;36745;48.544;8.918;2023-12-04T12:59:46;96709.72;;;-0.36;87.27
50774;BME280;36745;48.544;8.918;2023-12-04T13:03:16;96711.34;;;-0.18;88.06
50774;BME280;36745;48.544;8.918;2023-12-04T13:06:36;96710.16;;;-0.13;86.84
50774;BME280;36745;48.544;8.918;2023-12-04T13:09:56;96703.97;;;-0.28;87.11
50774;BME280;36745;48.544;8.918;2023-12-04T13:13:16;96678.81;;;-0.28;86.89
50774;BME280;36745;48.544;8.918;2023-12-04T13:16:36;96664.13;;;-0.27;86.83
50774;BME280;36745;48.544;8.918;2023-12-04T13:19:55;96655.59;;;-0.08;87.31
50774;BME280;36745;48.544;8.918;2023-12-04T13:23:15;96647.88;;;-0.13;87.21
50774;BME280;36745;48.544;8.918;2023-12-04T13:26:35;96678.78;;;-0.35;87.51
50774;BME280;36745;48.544;8.918;2023-12-04T13:29:55;96663.34;;;-0.24;87.97
50774;BME280;36745;48.544;8.918;2023-12-04T13:33:15;96655.59;;;-0.15;88.23
50774;BME280;36745;48.544;8.918;2023-12-04T13:36:34;96658.31;;;-0.05;88.68
50774;BME280;36745;48.544;8.918;2023-12-04T13:39:56;96656.38;;;-0.08;89.13
50774;BME280;36745;48.544;8.918;2023-12-04T13:43:17;96649.44;;;-0.02;88.57
50774;BME280;36745;48.544;8.918;2023-12-04T13:46:56;96634.31;;;-0.03;88.30
50774;BME280;36745;48.544;8.918;2023-12-04T13:50:17;96616.91;;;-0.33;88.11
50774;BME280;36745;48.544;8.918;2023-12-04T13:53:37;96610.31;;;-0.47;88.63
50774;BME280;36745;48.544;8.918;2023-12-04T13:57:04;96618.44;;;-0.25;88.72
50774;BME280;36745;48.544;8.918;2023-12-04T14:00:23;96612.66;;;-0.13;89.08
50774;BME280;36745;48.544;8.918;2023-12-04T14:03:45;96597.56;;;-0.07;88.08
50774;BME280;36745;48.544;8.918;2023-12-04T14:07:04;96589.03;;;-0.02;88.40
50774;BME280;36745;48.544;8.918;2023-12-04T14:10:27;96590.59;;;-0.01;88.38
50774;BME280;36745;48.544;8.918;2023-12-04T14:13:47;96604.91;;;0.03;88.78
50774;BME280;36745;48.544;8.918;2023-12-04T14:17:07;96614.97;;;-0.01;88.54
50774;BME280;36745;48.544;8.918;2023-12-04T14:20:28;96607.63;;;-0.04;89.87
50774;BME280;36745;48.544;8.918;2023-12-04T14:23:48;96598.31;;;0.00;89.22
50774;BME280;36745;48.544;8.918;2023-12-04T14:27:08;96606.47;;;0.04;88.79
50774;BME280;36745;48.544;8.918;2023-12-04T14:30:28;96594.84;;;-0.14;88.40
50774;BME280;36745;48.544;8.918;2023-12-04T14:33:47;96602.59;;;-0.09;89.18
50774;BME280;36745;48.544;8.918;2023-12-04T14:37:08;96588.25;;;0.12;89.50
50774;BME280;36745;48.544;8.918;2023-12-04T14:40:28;96579.72;;;0.06;88.57
50774;BME280;36745;48.544;8.918;2023-12-04T14:43:48;96570.47;;;-0.14;88.22
50774;BME280;36745;48.544;8.918;2023-12-04T14:47:08;96575.88;;;-0.07;89.71
50774;BME280;36745;48.544;8.918;2023-12-04T14:50:28;96561.19;;;-0.06;89.19
50774;BME280;36745;48.544;8.918;2023-12-04T14:53:48;96567.72;;;0.07;89.40
50774;BME280;36745;48.544;8.918;2023-12-04T14:57:23;96555.75;;;0.01;89.58
50774;BME280;36745;48.544;8.918;2023-12-04T15:00:48;96557.69;;;0.04;90.27
50774;BME280;36745;48.544;8.918;2023-12-04T15:04:31;96554.97;;;0.04;90.54
50774;BME280;36745;48.544;8.918;2023-12-04T15:08:09;96541.03;;;0.09;90.77
50774;BME280;36745;48.544;8.918;2023-12-04T15:11:38;96552.63;;;0.06;91.18
50774;BME280;36745;48.544;8.918;2023-12-04T15:15:16;96541.84;;;-0.08;91.25
50774;BME280;36745;48.544;8.918;2023-12-04T15:18:44;96537.94;;;-0.04;91.56
50774;BME280;36745;48.544;8.918;2023-12-04T15:22:24;96522.06;;;-0.05;91.94
50774;BME280;36745;48.544;8.918;2023-12-04T15:25:44;96519.75;;;-0.03;91.83
50774;BME280;36745;48.544;8.918;2023-12-04T15:29:03;96519.75;;;0.04;91.70
50774;BME280;36745;48.544;8.918;2023-12-04T15:32:24;96518.63;;;-0.06;91.25
50774;BME280;36745;48.544;8.918;2023-12-04T15:35:44;96514.72;;;-0.01;92.44
50774;BME280;36745;48.544;8.918;2023-12-04T15:39:04;96516.66;;;-0.02;92.14
50774;BME280;36745;48.544;8.918;2023-12-04T15:42:24;96518.19;;;0.07;92.34
50774;BME280;36745;48.544;8.918;2023-12-04T15:45:45;96509.28;;;0.06;92.41
50774;BME280;36745;48.544;8.918;2023-12-04T15:49:05;96494.97;;;0.02;92.23
50774;BME280;36745;48.544;8.918;2023-12-04T15:52:25;96503.09;;;0.09;92.45
50774;BME280;36745;48.544;8.918;2023-12-04T15:55:45;96495.31;;;0.11;92.27
50774;BME280;36745;48.544;8.918;2023-12-04T15:59:06;96491.50;;;0.05;92.89
50774;BME280;36745;48.544;8.918;2023-12-04T16:02:25;96479.50;;;-0.01;92.92
50774;BME280;36745;48.544;8.918;2023-12-04T16:05:45;96493.84;;;-0.01;93.71
50774;BME280;36745;48.544;8.918;2023-12-04T16:09:05;96487.59;;;0.13;93.21
50774;BME280;36745;48.544;8.918;2023-12-04T16:12:25;96482.94;;;0.17;93.12
50774;BME280;36745;48.544;8.918;2023-12-04T16:15:44;96480.59;;;0.19;92.95
50774;BME280;36745;48.544;8.918;2023-12-04T16:19:07;96478.25;;;0.28;92.64
50774;BME280;36745;48.544;8.918;2023-12-04T16:22:26;96475.19;;;0.19;93.56
50774;BME280;36745;48.544;8.918;2023-12-04T16:25:46;96469.72;;;0.30;93.01
50774;BME280;36745;48.544;8.918;2023-12-04T16:29:06;96472.03;;;0.31;93.57
50774;BME280;36745;48.544;8.918;2023-12-04T16:32:26;96475.53;;;0.32;93.42
50774;BME280;36745;48.544;8.918;2023-12-04T16:35:45;96468.19;;;0.25;93.96
50774;BME280;36745;48.544;8.918;2023-12-04T16:39:05;96470.50;;;0.23;93.96
50774;BME280;36745;48.544;8.918;2023-12-04T16:42:25;96458.09;;;0.29;93.51
50774;BME280;36745;48.544;8.918;2023-12-04T16:45:45;96454.31;;;0.16;93.36
50774;BME280;36745;48.544;8.918;2023-12-04T16:49:05;96450.38;;;0.24;94.27
50774;BME280;36745;48.544;8.918;2023-12-04T16:52:25;96454.97;;;0.41;93.92
50774;BME280;36745;48.544;8.918;2023-12-04T16:55:45;96446.84;;;0.34;94.08
50774;BME280;36745;48.544;8.918;2023-12-04T16:59:05;96443.66;;;0.54;93.82
50774;BME280;36745;48.544;8.918;2023-12-04T17:02:24;96433.97;;;0.49;93.71
50774;BME280;36745;48.544;8.918;2023-12-04T17:05:44;96436.03;;;0.27;94.00
50774;BME280;36745;48.544;8.918;2023-12-04T17:09:04;96428.69;;;0.28;94.38
50774;BME280;36745;48.544;8.918;2023-12-04T17:12:23;96426.00;;;0.24;95.26
50774;BME280;36745;48.544;8.918;2023-12-04T17:15:43;96414.78;;;0.19;94.39
50774;BME280;36745;48.544;8.918;2023-12-04T17:19:03;96410.16;;;0.16;95.07
50774;BME280;36745;48.544;8.918;2023-12-04T17:22:23;96401.63;;;0.17;94.85
50774;BME280;36745;48.544;8.918;2023-12-04T17:25:46;96386.91;;;0.18;94.84
50774;BME280;36745;48.544;8.918;2023-12-04T17:29:05;96393.97;;;-0.02;94.65
50774;BME280;36745;48.544;8.918;2023-12-04T17:32:25;96388.97;;;-0.07;94.96
50774;BME280;36745;48.544;8.918;2023-12-04T17:35:45;96390.88;;;-0.04;94.88
50774;BME280;36745;48.544;8.918;2023-12-04T17:39:04;96380.53;;;-0.30;95.31
50774;BME280;36745;48.544;8.918;2023-12-04T17:42:27;96371.66;;;-0.34;95.19
50774;BME280;36745;48.544;8.918;2023-12-04T17:45:47;96375.56;;;-0.46;95.67
50774;BME280;36745;48.544;8.918;2023-12-04T17:49:07;96374.00;;;-0.44;95.67
50774;BME280;36745;48.544;8.918;2023-12-04T17:52:27;96367.06;;;-0.52;95.44
50774;BME280;36745;48.544;8.918;2023-12-04T17:55:47;96361.66;;;-0.52;95.31
50774;BME280;36745;48.544;8.918;2023-12-04T17:59:07;96356.31;;;-0.87;96.60
50774;BME280;36745;48.544;8.918;2023-12-04T18:02:27;96347.81;;;-0.89;96.87
50774;BME280;36745;48.544;8.918;2023-12-04T18:05:46;96352.44;;;-0.79;96.20
50774;BME280;36745;48.544;8.918;2023-12-04T18:09:06;96343.56;;;-1.01;96.49